createdAt,value
2018-08-22T00:00:57.055Z,27.83
2018-08-22T00:03:25.983Z,27.80
2018-08-22T00:05:54.512Z,27.76
2018-08-22T00:08:53.510Z,27.72
2018-08-22T00:11:22.282Z,27.67
2018-08-22T00:13:50.849Z,27.65
2018-08-22T00:16:19.440Z,27.63
2018-08-22T00:18:48.298Z,27.61
2018-08-22T00:21:16.816Z,27.60
2018-08-22T00:23:45.325Z,27.60
2018-08-22T00:26:14.153Z,27.61
2018-08-22T00:28:42.711Z,27.60
2018-08-22T00:31:11.366Z,27.57
2018-08-22T00:33:46.486Z,27.54
2018-08-22T00:36:15.134Z,27.52
2018-08-22T00:38:43.604Z,27.49
2018-08-22T00:41:12.528Z,27.47
2018-08-22T00:43:41.020Z,27.45
2018-08-22T00:46:09.532Z,27.40
2018-08-22T00:48:38.270Z,27.38
2018-08-22T00:51:06.750Z,27.34
2018-08-22T00:53:35.462Z,27.31
2018-08-22T00:56:05.360Z,27.27
2018-08-22T00:58:34.024Z,27.19
2018-08-22T01:01:02.742Z,27.12
2018-08-22T01:03:31.553Z,27.09
2018-08-22T01:06:00.357Z,27.04
2018-08-22T01:08:28.835Z,27.01
2018-08-22T01:10:57.588Z,27.00
2018-08-22T01:13:26.120Z,26.98
2018-08-22T01:15:54.614Z,26.96
2018-08-22T01:18:23.582Z,26.94
2018-08-22T01:20:52.094Z,26.91
2018-08-22T01:23:20.634Z,26.86
2018-08-22T01:25:49.943Z,26.84
2018-08-22T01:28:19.452Z,26.79
2018-08-22T01:30:48.697Z,26.77
2018-08-22T01:33:17.464Z,26.76
2018-08-22T01:35:47.078Z,26.77
2018-08-22T01:38:15.556Z,26.75
2018-08-22T01:40:44.383Z,26.73
2018-08-22T01:43:12.967Z,26.69
2018-08-22T01:45:41.507Z,26.66
2018-08-22T01:48:10.271Z,26.62
2018-08-22T01:50:39.627Z,26.63
2018-08-22T01:53:08.079Z,26.37
2018-08-22T01:55:36.952Z,26.44
2018-08-22T01:58:06.251Z,26.31
2018-08-22T02:00:34.779Z,26.37
2018-08-22T02:05:42.765Z,26.45
2018-08-22T02:08:11.942Z,26.45
2018-08-22T02:10:40.592Z,26.42
2018-08-22T02:13:09.581Z,26.45
2018-08-22T02:15:38.350Z,26.43
2018-08-22T02:18:06.995Z,26.44
2018-08-22T02:20:35.504Z,26.37
2018-08-22T02:23:04.047Z,26.29
2018-08-22T02:25:33.036Z,26.29
2018-08-22T02:28:01.564Z,26.29
2018-08-22T02:30:30.060Z,26.25
2018-08-22T02:32:58.540Z,26.23
2018-08-22T02:35:27.038Z,26.25
2018-08-22T02:37:55.613Z,26.23
2018-08-22T02:40:24.276Z,26.19
2018-08-22T02:42:53.054Z,26.14
2018-08-22T02:45:21.576Z,26.12
2018-08-22T02:47:50.089Z,26.02
2018-08-22T02:50:20.032Z,25.94
2018-08-22T02:52:48.525Z,25.88
2018-08-22T02:55:17.095Z,25.79
2018-08-22T02:57:46.108Z,25.70
2018-08-22T03:00:15.667Z,25.68
2018-08-22T03:02:44.196Z,25.74
2018-08-22T03:05:13.014Z,25.77
2018-08-22T03:07:41.563Z,25.75
2018-08-22T03:10:10.051Z,25.73
2018-08-22T03:12:38.868Z,25.74
2018-08-22T03:15:07.355Z,25.78
2018-08-22T03:17:35.887Z,25.77
2018-08-22T03:20:06.441Z,25.69
2018-08-22T03:22:34.967Z,25.68
2018-08-22T03:25:03.499Z,25.68
2018-08-22T03:27:32.237Z,25.66
2018-08-22T03:30:00.701Z,25.64
2018-08-22T03:32:29.206Z,25.55
2018-08-22T03:34:57.988Z,25.64
2018-08-22T03:37:26.543Z,25.67
2018-08-22T03:39:55.173Z,25.65
2018-08-22T03:42:24.255Z,25.62
2018-08-22T03:44:52.806Z,25.53
2018-08-22T03:47:21.606Z,25.59
2018-08-22T03:49:50.101Z,25.58
2018-08-22T03:52:19.387Z,25.54
2018-08-22T03:54:47.915Z,25.49
2018-08-22T03:57:16.685Z,25.39
2018-08-22T03:59:45.175Z,25.41
2018-08-22T04:02:13.650Z,25.36
2018-08-22T04:04:42.172Z,25.35
2018-08-22T04:07:10.675Z,25.35
2018-08-22T04:09:39.575Z,25.16
2018-08-22T04:12:08.113Z,25.19
2018-08-22T04:14:36.700Z,25.13
2018-08-22T04:17:06.008Z,24.94
2018-08-22T04:19:34.555Z,24.92
2018-08-22T04:22:04.025Z,24.83
2018-08-22T04:24:32.903Z,24.97
2018-08-22T04:27:01.511Z,25.09
2018-08-22T04:29:30.126Z,25.04
2018-08-22T04:31:58.904Z,24.99
2018-08-22T04:34:27.418Z,24.98
2018-08-22T04:36:55.977Z,24.95
2018-08-22T04:39:24.943Z,24.97
2018-08-22T04:41:53.555Z,24.90
2018-08-22T04:44:22.136Z,24.87
2018-08-22T04:46:50.957Z,24.74
2018-08-22T04:49:20.036Z,24.57
2018-08-22T04:51:48.531Z,24.61
2018-08-22T04:54:18.791Z,24.71
2018-08-22T04:56:47.291Z,24.72
2018-08-22T04:59:15.840Z,24.73
2018-08-22T05:01:52.249Z,24.72
2018-08-22T05:04:21.067Z,24.75
2018-08-22T05:06:49.612Z,24.88
2018-08-22T05:09:18.483Z,24.85
2018-08-22T05:11:47.034Z,24.90
2018-08-22T05:14:15.615Z,24.92
2018-08-22T05:16:44.431Z,24.98
2018-08-22T05:19:12.979Z,24.89
2018-08-22T05:21:41.503Z,24.90
2018-08-22T05:24:10.340Z,24.90
2018-08-22T05:26:38.901Z,24.99
2018-08-22T05:29:07.420Z,24.94
2018-08-22T05:31:36.371Z,24.89
2018-08-22T05:34:05.875Z,25.00
2018-08-22T05:36:34.542Z,25.06
2018-08-22T05:39:03.619Z,24.98
2018-08-22T05:41:32.147Z,25.00
2018-08-22T05:44:00.772Z,25.06
2018-08-22T05:46:29.652Z,25.05
2018-08-22T05:48:58.235Z,25.05
2018-08-22T05:51:26.796Z,25.15
2018-08-22T05:53:55.931Z,25.10
2018-08-22T05:56:24.491Z,25.05
2018-08-22T05:58:53.083Z,25.17
2018-08-22T06:01:21.926Z,25.12
2018-08-22T06:03:50.448Z,25.32
2018-08-22T06:06:19.060Z,25.42
2018-08-22T06:08:48.055Z,25.48
2018-08-22T06:11:16.694Z,25.53
2018-08-22T06:13:45.308Z,25.61
2018-08-22T06:16:14.211Z,25.60
2018-08-22T06:18:42.776Z,25.63
2018-08-22T06:21:11.341Z,25.72
2018-08-22T06:23:40.328Z,25.80
2018-08-22T06:26:08.959Z,25.86
2018-08-22T06:28:37.519Z,25.91
2018-08-22T06:31:06.372Z,25.95
2018-08-22T06:33:35.630Z,26.01
2018-08-22T06:36:04.882Z,26.02
2018-08-22T06:38:35.075Z,26.08
2018-08-22T06:41:05.035Z,26.14
2018-08-22T06:43:33.635Z,26.24
2018-08-22T06:46:04.467Z,26.29
2018-08-22T06:48:34.019Z,26.34
2018-08-22T06:51:02.698Z,26.37
2018-08-22T06:53:32.264Z,26.33
2018-08-22T06:56:00.851Z,26.40
2018-08-22T06:58:29.421Z,26.49
2018-08-22T07:00:58.430Z,26.45
2018-08-22T07:03:27.026Z,26.30
2018-08-22T07:05:55.567Z,26.36
2018-08-22T07:08:24.381Z,26.29
2018-08-22T07:10:52.986Z,26.18
2018-08-22T07:13:21.534Z,26.22
2018-08-22T07:15:50.486Z,26.07
2018-08-22T07:18:19.201Z,26.13
2018-08-22T07:20:48.092Z,26.15
2018-08-22T07:23:17.326Z,26.00
2018-08-22T07:25:45.849Z,26.08
2018-08-22T07:28:14.424Z,26.14
2018-08-22T07:30:43.436Z,26.18
2018-08-22T07:33:11.984Z,26.22
2018-08-22T07:35:40.583Z,26.14
2018-08-22T07:38:09.543Z,26.19
2018-08-22T07:40:38.314Z,26.17
2018-08-22T07:43:07.280Z,26.16
2018-08-22T07:45:36.156Z,26.19
2018-08-22T07:48:05.776Z,26.21
2018-08-22T07:50:34.760Z,26.11
2018-08-22T07:53:04.747Z,26.20
2018-08-22T07:55:38.305Z,26.11
2018-08-22T07:58:07.013Z,26.04
2018-08-22T08:00:35.975Z,26.20
2018-08-22T08:03:04.519Z,26.22
2018-08-22T08:05:35.081Z,26.06
2018-08-22T08:08:04.829Z,26.13
2018-08-22T08:10:34.552Z,26.25
2018-08-22T08:13:03.817Z,26.40
2018-08-22T08:15:33.042Z,26.51
2018-08-22T08:18:03.251Z,26.26
2018-08-22T08:20:31.767Z,26.42
2018-08-22T08:23:00.776Z,26.44
2018-08-22T08:25:29.396Z,26.54
2018-08-22T08:27:57.920Z,26.54
2018-08-22T08:30:26.764Z,26.63
2018-08-22T08:32:55.948Z,26.85
2018-08-22T08:35:24.778Z,26.87
2018-08-22T08:37:53.674Z,26.79
2018-08-22T08:40:22.195Z,26.77
2018-08-22T08:42:50.928Z,26.93
2018-08-22T08:45:19.783Z,27.06
2018-08-22T08:47:48.354Z,27.11
2018-08-22T08:50:16.909Z,27.19
2018-08-22T08:52:45.739Z,27.18
2018-08-22T08:55:14.375Z,27.37
2018-08-22T08:57:42.997Z,27.47
2018-08-22T09:00:11.802Z,27.58
2018-08-22T09:02:40.406Z,27.41
2018-08-22T09:05:09.045Z,27.55
2018-08-22T09:07:37.947Z,27.84
2018-08-22T09:10:06.915Z,27.87
2018-08-22T09:12:37.284Z,28.02
2018-08-22T09:15:06.756Z,27.92
2018-08-22T09:17:35.259Z,27.91
2018-08-22T09:20:04.932Z,28.01
2018-08-22T09:22:33.791Z,28.09
2018-08-22T09:25:02.295Z,28.19
2018-08-22T09:27:30.813Z,28.02
2018-08-22T09:29:59.607Z,28.36
2018-08-22T09:32:28.118Z,28.35
2018-08-22T09:34:56.667Z,28.54
2018-08-22T09:37:25.516Z,28.70
2018-08-22T09:39:54.254Z,28.95
2018-08-22T09:42:22.725Z,29.10
2018-08-22T09:44:51.435Z,29.29
2018-08-22T09:47:20.131Z,29.44
2018-08-22T09:49:48.813Z,29.67
2018-08-22T09:52:17.680Z,29.54
2018-08-22T09:54:59.787Z,29.59
2018-08-22T09:57:29.336Z,29.50
2018-08-22T09:59:57.929Z,29.60
2018-08-22T10:02:26.628Z,29.95
2018-08-22T10:04:55.822Z,30.28
2018-08-22T10:07:24.818Z,30.33
2018-08-22T10:09:53.349Z,30.46
2018-08-22T10:12:22.416Z,30.36
2018-08-22T10:14:51.420Z,30.62
2018-08-22T10:17:19.960Z,30.93
2018-08-22T10:19:48.757Z,31.26
2018-08-22T10:22:17.306Z,31.17
2018-08-22T10:24:45.873Z,31.17
2018-08-22T10:27:14.691Z,31.41
2018-08-22T10:29:43.227Z,31.61
2018-08-22T10:32:11.755Z,31.90
2018-08-22T10:34:40.598Z,32.14
2018-08-22T10:37:09.303Z,32.06
2018-08-22T10:39:37.822Z,32.27
2018-08-22T10:42:06.720Z,32.40
2018-08-22T10:44:35.401Z,32.26
2018-08-22T10:47:03.886Z,32.05
2018-08-22T10:49:32.823Z,32.33
2018-08-22T10:52:03.388Z,32.54
2018-08-22T10:54:32.156Z,32.86
2018-08-22T10:57:01.011Z,32.70
2018-08-22T10:59:29.637Z,32.93
2018-08-22T11:01:58.280Z,33.14
2018-08-22T11:04:27.155Z,33.38
2018-08-22T11:06:55.775Z,33.75
2018-08-22T11:09:24.575Z,34.17
2018-08-22T11:11:53.389Z,34.19
2018-08-22T11:14:21.945Z,34.64
2018-08-22T11:16:51.144Z,35.05
2018-08-22T11:19:19.981Z,35.34
2018-08-22T11:21:59.508Z,35.59
2018-08-22T11:24:39.111Z,35.67
2018-08-22T11:27:18.661Z,35.93
2018-08-22T11:29:58.659Z,35.75
2018-08-22T11:32:38.164Z,36.10
2018-08-22T11:35:05.675Z,36.49
2018-08-22T11:37:34.349Z,36.68
2018-08-22T11:40:03.804Z,36.84
2018-08-22T11:42:32.836Z,36.99
2018-08-22T11:45:01.771Z,36.32
2018-08-22T11:47:30.334Z,36.57
2018-08-22T11:49:59.195Z,36.73
2018-08-22T11:52:27.753Z,37.11
2018-08-22T11:54:56.898Z,37.39
2018-08-22T11:57:25.798Z,37.37
2018-08-22T11:59:54.428Z,37.71
2018-08-22T12:02:23.031Z,37.73
2018-08-22T12:04:51.819Z,37.89
2018-08-22T12:07:20.419Z,37.89
2018-08-22T12:09:48.965Z,38.22
2018-08-22T12:12:18.158Z,38.51
2018-08-22T12:14:46.729Z,38.63
2018-08-22T12:17:15.326Z,38.70
2018-08-22T12:19:44.340Z,38.68
2018-08-22T12:22:12.920Z,38.82
2018-08-22T12:24:41.520Z,39.10
2018-08-22T12:27:10.637Z,39.47
2018-08-22T12:29:39.349Z,39.44
2018-08-22T12:32:07.981Z,39.90
2018-08-22T12:34:36.840Z,39.75
2018-08-22T12:37:05.756Z,39.79
2018-08-22T12:39:34.376Z,39.76
2018-08-22T12:42:05.560Z,39.34
2018-08-22T12:44:34.460Z,39.57
2018-08-22T12:47:04.623Z,39.85
2018-08-22T12:49:35.305Z,40.08
2018-08-22T12:52:05.839Z,40.23
2018-08-22T12:54:35.688Z,39.87
2018-08-22T12:57:04.951Z,39.89
2018-08-22T12:59:33.802Z,40.19
2018-08-22T13:02:04.296Z,40.09
2018-08-22T13:04:34.589Z,40.35
2018-08-22T13:07:03.270Z,40.48
2018-08-22T13:09:32.094Z,40.54
2018-08-22T13:12:00.917Z,41.42
2018-08-22T13:14:29.431Z,40.92
2018-08-22T13:16:58.122Z,41.65
2018-08-22T13:19:26.896Z,42.25
2018-08-22T13:21:55.467Z,42.88
2018-08-22T13:24:24.035Z,43.20
2018-08-22T13:26:52.854Z,43.21
2018-08-22T13:29:21.495Z,43.84
2018-08-22T13:31:51.056Z,43.59
2018-08-22T13:34:19.921Z,44.08
2018-08-22T13:36:49.560Z,44.41
2018-08-22T13:39:29.517Z,44.81
2018-08-22T13:42:12.472Z,45.01
2018-08-22T13:44:42.320Z,45.15
2018-08-22T13:47:11.431Z,43.23
2018-08-22T13:49:40.261Z,44.31
2018-08-22T13:52:08.861Z,42.29
2018-08-22T13:54:38.286Z,42.74
2018-08-22T13:57:07.016Z,43.43
2018-08-22T13:59:35.762Z,44.23
2018-08-22T14:02:05.623Z,45.15
2018-08-22T14:04:34.320Z,45.95
2018-08-22T14:07:02.936Z,46.30
2018-08-22T14:09:31.768Z,46.71
2018-08-22T14:12:00.327Z,47.36
2018-08-22T14:14:28.962Z,47.49
2018-08-22T14:16:57.805Z,47.73
2018-08-22T14:19:26.421Z,47.53
2018-08-22T14:21:55.003Z,47.16
2018-08-22T14:24:23.872Z,48.05
2018-08-22T14:26:52.390Z,48.32
2018-08-22T14:29:20.966Z,48.06
2018-08-22T14:31:50.685Z,48.30
2018-08-22T14:34:19.386Z,48.54
2018-08-22T14:36:47.916Z,48.07
2018-08-22T14:39:16.834Z,48.33
2018-08-22T14:41:45.353Z,48.42
2018-08-22T14:44:13.879Z,48.23
2018-08-22T14:46:42.775Z,48.54
2018-08-22T14:49:11.431Z,48.33
2018-08-22T14:51:40.013Z,48.93
2018-08-22T14:54:08.841Z,49.34
2018-08-22T14:56:37.439Z,49.15
2018-08-22T14:59:06.339Z,49.54
2018-08-22T15:01:35.224Z,49.72
2018-08-22T15:04:04.448Z,49.80
2018-08-22T15:06:32.985Z,49.45
2018-08-22T15:09:07.079Z,49.60
2018-08-22T15:11:36.522Z,49.62
2018-08-22T15:14:06.683Z,49.55
2018-08-22T15:16:35.467Z,48.88
2018-08-22T15:19:04.041Z,48.15
2018-08-22T15:21:32.600Z,48.18
2018-08-22T15:24:01.185Z,48.69
2018-08-22T15:26:29.818Z,48.73
2018-08-22T15:28:58.631Z,48.16
2018-08-22T15:31:28.022Z,47.98
2018-08-22T15:33:56.797Z,47.83
2018-08-22T15:36:25.802Z,47.67
2018-08-22T15:38:54.333Z,47.26
2018-08-22T15:41:22.933Z,47.44
2018-08-22T15:43:51.867Z,47.73
2018-08-22T15:46:20.455Z,47.51
2018-08-22T15:48:48.942Z,47.32
2018-08-22T15:51:17.765Z,47.13
2018-08-22T15:54:00.226Z,46.95
2018-08-22T15:56:29.031Z,46.44
2018-08-22T15:58:57.773Z,46.41
2018-08-22T16:01:26.313Z,46.11
2018-08-22T16:03:55.113Z,45.02
2018-08-22T16:06:23.737Z,45.40
2018-08-22T16:08:52.329Z,45.00
2018-08-22T16:11:21.091Z,44.58
2018-08-22T16:13:49.915Z,44.34
2018-08-22T16:16:18.442Z,44.07
2018-08-22T16:18:47.403Z,42.55
2018-08-22T16:21:15.928Z,42.74
2018-08-22T16:23:44.696Z,42.63
2018-08-22T16:26:13.517Z,42.34
2018-08-22T16:28:53.477Z,42.18
2018-08-22T16:31:25.322Z,41.65
2018-08-22T16:33:53.952Z,41.07
2018-08-22T16:36:26.606Z,41.00
2018-08-22T16:38:55.149Z,40.21
2018-08-22T16:41:23.691Z,40.46
2018-08-22T16:43:52.826Z,39.88
2018-08-22T16:46:21.350Z,39.41
2018-08-22T16:48:51.413Z,39.49
2018-08-22T16:51:21.451Z,39.52
2018-08-22T16:53:57.757Z,39.60
2018-08-22T16:56:26.382Z,39.52
2018-08-22T16:58:59.199Z,39.39
2018-08-22T17:01:27.839Z,39.10
2018-08-22T17:03:56.495Z,39.13
2018-08-22T17:06:27.653Z,39.13
2018-08-22T17:08:56.856Z,38.47
2018-08-22T17:11:25.422Z,38.54
2018-08-22T17:13:54.659Z,38.42
2018-08-22T17:16:24.300Z,38.50
2018-08-22T17:18:52.808Z,38.25
2018-08-22T17:21:21.622Z,38.17
2018-08-22T17:23:50.463Z,38.09
2018-08-22T17:26:20.028Z,37.80
2018-08-22T17:28:51.003Z,37.72
2018-08-22T17:31:20.452Z,37.62
2018-08-22T17:33:49.896Z,37.37
2018-08-22T17:36:19.131Z,37.17
2018-08-22T17:38:48.942Z,37.00
2018-08-22T17:41:18.345Z,37.01
2018-08-22T17:44:05.912Z,36.92
2018-08-22T17:46:35.735Z,36.76
2018-08-22T17:49:04.705Z,36.71
2018-08-22T17:51:40.175Z,36.52
2018-08-22T17:54:08.750Z,36.42
2018-08-22T17:56:37.890Z,36.19
2018-08-22T17:59:06.412Z,36.19
2018-08-22T18:01:35.105Z,36.13
2018-08-22T18:04:05.215Z,36.04
2018-08-22T18:06:33.875Z,36.07
2018-08-22T18:09:03.879Z,35.94
2018-08-22T18:11:33.792Z,35.65
2018-08-22T18:14:04.235Z,35.34
2018-08-22T18:16:32.755Z,35.31
2018-08-22T18:19:01.603Z,35.24
2018-08-22T18:21:34.288Z,35.35
2018-08-22T18:24:03.441Z,35.37
2018-08-22T18:26:32.233Z,35.36
2018-08-22T18:29:00.938Z,35.33
2018-08-22T18:31:30.026Z,35.30
2018-08-22T18:34:01.260Z,35.17
2018-08-22T18:36:31.589Z,35.19
2018-08-22T18:39:05.345Z,35.17
2018-08-22T18:41:33.894Z,35.11
2018-08-22T18:44:04.019Z,35.06
2018-08-22T18:46:32.657Z,35.02
2018-08-22T18:49:01.859Z,34.97
2018-08-22T18:51:30.837Z,34.91
2018-08-22T18:53:59.707Z,34.88
2018-08-22T18:56:28.292Z,34.83
2018-08-22T18:58:57.244Z,34.76
2018-08-22T19:01:25.832Z,34.67
2018-08-22T19:03:56.516Z,34.63
2018-08-22T19:06:36.960Z,34.50
2018-08-22T19:09:10.816Z,34.38
2018-08-22T19:11:39.995Z,34.29
2018-08-22T19:14:08.536Z,34.25
2018-08-22T19:16:37.160Z,34.27
2018-08-22T19:19:05.981Z,34.17
2018-08-22T19:21:34.636Z,33.97
2018-08-22T19:24:05.908Z,34.09
2018-08-22T19:26:35.019Z,34.10
2018-08-22T19:29:05.729Z,34.08
2018-08-22T19:31:34.501Z,34.04
2018-08-22T19:34:05.082Z,33.99
2018-08-22T19:36:33.618Z,33.96
2018-08-22T19:39:02.504Z,33.92
2018-08-22T19:41:33.162Z,33.86
2018-08-22T19:44:01.736Z,33.80
2018-08-22T19:46:30.725Z,33.75
2018-08-22T19:49:00.558Z,33.70
2018-08-22T19:51:29.383Z,33.65
2018-08-22T19:54:03.732Z,33.60
2018-08-22T19:56:32.508Z,33.54
2018-08-22T19:59:01.770Z,33.48
2018-08-22T20:01:32.757Z,33.42
2018-08-22T20:04:01.570Z,33.36
2018-08-22T20:06:30.436Z,33.26
2018-08-22T20:08:59.878Z,33.21
2018-08-22T20:11:28.843Z,33.13
2018-08-22T20:13:59.815Z,33.08
2018-08-22T20:16:28.484Z,33.00
2018-08-22T20:18:59.144Z,32.91
2018-08-22T20:21:33.146Z,32.85
2018-08-22T20:24:03.402Z,32.79
2018-08-22T20:26:32.587Z,32.74
2018-08-22T20:29:02.740Z,32.68
2018-08-22T20:31:31.527Z,32.66
2018-08-22T20:34:09.843Z,32.52
2018-08-22T20:36:38.715Z,32.52
2018-08-22T20:39:10.166Z,32.51
2018-08-22T20:41:39.467Z,32.45
2018-08-22T20:44:10.595Z,32.23
2018-08-22T20:46:39.407Z,32.33
2018-08-22T20:49:08.007Z,32.36
2018-08-22T20:51:36.907Z,32.34
2018-08-22T20:54:07.880Z,32.33
2018-08-22T20:56:38.256Z,32.25
2018-08-22T20:59:07.077Z,32.18
2018-08-22T21:01:35.631Z,32.09
2018-08-22T21:04:06.658Z,32.12
2018-08-22T21:06:35.556Z,32.10
2018-08-22T21:09:04.999Z,32.10
2018-08-22T21:11:33.689Z,31.99
2018-08-22T21:14:03.462Z,31.98
2018-08-22T21:16:31.967Z,31.98
2018-08-22T21:19:00.499Z,31.93
2018-08-22T21:21:29.296Z,31.84
2018-08-22T21:23:57.919Z,31.83
2018-08-22T21:26:38.589Z,31.80
2018-08-22T21:29:07.515Z,31.75
2018-08-22T21:31:36.524Z,31.73
2018-08-22T21:34:12.915Z,31.68
2018-08-22T21:36:43.811Z,31.62
2018-08-22T21:39:17.587Z,31.59
2018-08-22T21:41:47.159Z,31.56
2018-08-22T21:44:20.087Z,31.50
2018-08-22T21:47:00.464Z,31.46
2018-08-22T21:49:29.783Z,31.43
2018-08-22T21:51:59.333Z,31.40
2018-08-22T21:54:28.091Z,31.37
2018-08-22T21:56:57.047Z,31.34
2018-08-22T21:59:25.581Z,31.29
2018-08-22T22:01:59.330Z,31.25
2018-08-22T22:04:34.308Z,31.19
2018-08-22T22:07:03.881Z,31.16
2018-08-22T22:09:32.483Z,31.14
2018-08-22T22:12:03.571Z,31.10
2018-08-22T22:14:33.826Z,31.06
2018-08-22T22:17:03.599Z,31.02
2018-08-22T22:19:33.376Z,30.98
2018-08-22T22:22:04.244Z,30.94
2018-08-22T22:24:34.122Z,30.90
2018-08-22T22:27:03.341Z,30.88
2018-08-22T22:29:32.868Z,30.87
2018-08-22T22:32:02.433Z,30.85
2018-08-22T22:34:31.428Z,30.83
2018-08-22T22:36:59.939Z,30.82
2018-08-22T22:39:42.897Z,30.80
2018-08-22T22:42:27.570Z,30.75
2018-08-22T22:44:57.859Z,30.69
2018-08-22T22:47:26.780Z,30.64
2018-08-22T22:49:56.234Z,30.64
2018-08-22T22:52:40.100Z,30.60
2018-08-22T22:55:09.588Z,30.58
2018-08-22T22:57:39.707Z,30.52
2018-08-22T23:00:11.446Z,30.47
2018-08-22T23:02:40.008Z,30.50
2018-08-22T23:05:09.255Z,30.48
2018-08-22T23:07:38.916Z,30.46
2018-08-22T23:10:09.768Z,30.43
2018-08-22T23:12:39.569Z,30.37
2018-08-22T23:15:10.636Z,30.32
2018-08-22T23:17:39.423Z,30.33
2018-08-22T23:20:29.222Z,30.23
2018-08-22T23:22:57.952Z,30.22
2018-08-22T23:25:26.758Z,30.14
2018-08-22T23:27:55.616Z,30.17
2018-08-22T23:30:28.248Z,30.06
2018-08-22T23:32:56.861Z,30.09
2018-08-22T23:35:29.416Z,30.04
2018-08-22T23:37:59.081Z,29.97
2018-08-22T23:40:28.626Z,29.93
2018-08-22T23:42:57.241Z,29.83
2018-08-22T23:45:25.784Z,29.84
2018-08-22T23:47:54.661Z,29.80
2018-08-22T23:50:23.241Z,29.80
2018-08-22T23:52:53.012Z,29.76
2018-08-22T23:55:22.696Z,29.55
2018-08-22T23:57:53.262Z,29.52
